createdAt,value
2022-10-19T00:01:22.971Z,102716.13
2022-10-19T00:03:56.086Z,102721.34
2022-10-19T00:06:32.479Z,102715.22
2022-10-19T00:09:20.279Z,102713.53
2022-10-19T00:11:51.208Z,102712.63
2022-10-19T00:14:24.632Z,102703.06
2022-10-19T00:16:54.468Z,102707.44
2022-10-19T00:19:28.637Z,102703.13
2022-10-19T00:21:55.889Z,102696.16
2022-10-19T00:24:23.209Z,102696.16
2022-10-19T00:26:50.588Z,102699.69
2022-10-19T00:29:18.899Z,102698.84
2022-10-19T00:31:46.152Z,102704.09
2022-10-19T00:34:13.484Z,102703.28
2022-10-19T00:36:41.817Z,102709.38
2022-10-19T00:39:16.242Z,102702.44
2022-10-19T00:41:48.154Z,102699.84
2022-10-19T00:44:15.956Z,102703.38
2022-10-19T00:46:50.687Z,102703.41
2022-10-19T00:49:25.710Z,102699.94
2022-10-19T00:52:06.193Z,102703.47
2022-10-19T00:54:37.682Z,102706.97
2022-10-19T00:57:07.450Z,102704.41
2022-10-19T00:59:36.700Z,102699.22
2022-10-19T01:02:06.170Z,102712.28
2022-10-19T01:04:39.025Z,102713.22
2022-10-19T01:07:08.222Z,102705.41
2022-10-19T01:09:35.595Z,102698.44
2022-10-19T01:12:15.875Z,102683.69
2022-10-19T01:15:20.943Z,102687.22
2022-10-19T01:18:41.828Z,102693.34
2022-10-19T01:21:26.296Z,102692.50
2022-10-19T01:24:51.997Z,102693.41
2022-10-19T01:27:43.922Z,102696.03
2022-10-19T01:30:29.279Z,102694.28
2022-10-19T01:33:31.877Z,102687.34
2022-10-19T01:36:34.792Z,102683.91
2022-10-19T01:39:39.714Z,102681.31
2022-10-19T01:43:04.298Z,102677.88
2022-10-19T01:46:07.016Z,102682.22
2022-10-19T01:48:52.310Z,102679.66
2022-10-19T01:51:48.350Z,102671.84
2022-10-19T01:54:31.976Z,102680.63
2022-10-19T01:57:12.570Z,102678.03
2022-10-19T01:59:53.529Z,102668.53
2022-10-19T02:02:30.740Z,102666.81
2022-10-19T02:05:08.242Z,102666.81
2022-10-19T02:07:37.865Z,102672.06
2022-10-19T02:10:06.383Z,102672.09
2022-10-19T02:12:35.086Z,102673.81
2022-10-19T02:15:12.106Z,102666.94
2022-10-19T02:17:48.553Z,102666.94
2022-10-19T02:20:18.019Z,102659.16
2022-10-19T02:22:45.420Z,102653.09
2022-10-19T02:25:13.459Z,102650.50
2022-10-19T02:27:42.185Z,102649.69
2022-10-19T02:30:14.494Z,102644.50
2022-10-19T02:32:44.088Z,102639.28
2022-10-19T02:35:14.705Z,102638.47
2022-10-19T02:37:42.547Z,102637.56
2022-10-19T02:40:11.469Z,102638.47
2022-10-19T02:42:56.215Z,102628.91
2022-10-19T02:45:36.401Z,102630.69
2022-10-19T02:48:11.423Z,102625.47
2022-10-19T02:50:43.968Z,102624.59
2022-10-19T02:53:11.162Z,102620.28
2022-10-19T02:55:38.705Z,102620.28
2022-10-19T02:58:05.918Z,102628.97
2022-10-19T03:00:33.210Z,102616.81
2022-10-19T03:03:00.513Z,102612.50
2022-10-19T03:05:27.655Z,102625.56
2022-10-19T03:07:54.854Z,102629.00
2022-10-19T03:10:22.078Z,102623.78
2022-10-19T03:12:49.547Z,102633.38
2022-10-19T03:15:19.626Z,102623.81
2022-10-19T03:17:46.926Z,102626.44
2022-10-19T03:20:14.123Z,102623.84
2022-10-19T03:22:41.341Z,102630.81
2022-10-19T03:25:09.179Z,102627.31
2022-10-19T03:27:36.586Z,102627.31
2022-10-19T03:30:04.987Z,102624.72
2022-10-19T03:32:32.118Z,102616.91
2022-10-19T03:34:59.262Z,102611.72
2022-10-19T03:37:26.423Z,102611.75
2022-10-19T03:39:53.545Z,102618.72
2022-10-19T03:42:20.698Z,102618.72
2022-10-19T03:44:50.088Z,102610.94
2022-10-19T03:47:17.397Z,102609.19
2022-10-19T03:49:44.680Z,102606.63
2022-10-19T03:52:11.903Z,102604.91
2022-10-19T03:54:39.133Z,102617.06
2022-10-19T03:57:06.308Z,102611.03
2022-10-19T03:59:33.720Z,102611.91
2022-10-19T04:02:00.930Z,102620.66
2022-10-19T04:04:28.205Z,102614.56
2022-10-19T04:06:55.792Z,102626.75
2022-10-19T04:09:23.797Z,102624.16
2022-10-19T04:11:51.095Z,102628.53
2022-10-19T04:14:32.195Z,102642.44
2022-10-19T04:17:02.370Z,102635.53
2022-10-19T04:19:32.589Z,102626.88
2022-10-19T04:22:00.253Z,102626.84
2022-10-19T04:24:28.058Z,102624.28
2022-10-19T04:26:56.804Z,102630.38
2022-10-19T04:29:29.603Z,102631.31
2022-10-19T04:31:59.604Z,102624.38
2022-10-19T04:34:27.388Z,102627.00
2022-10-19T04:36:55.145Z,102622.69
2022-10-19T04:39:22.939Z,102626.19
2022-10-19T04:41:50.131Z,102625.31
2022-10-19T04:44:17.451Z,102629.69
2022-10-19T04:46:44.745Z,102629.72
2022-10-19T04:49:15.140Z,102626.28
2022-10-19T04:51:45.040Z,102621.09
2022-10-19T04:54:12.199Z,102615.91
2022-10-19T04:56:40.407Z,102615.03
2022-10-19T04:59:07.826Z,102612.44
2022-10-19T05:01:35.971Z,102612.47
2022-10-19T05:04:04.142Z,102619.44
2022-10-19T05:06:32.134Z,102616.84
2022-10-19T05:09:00.107Z,102608.19
2022-10-19T05:11:27.926Z,102614.28
2022-10-19T05:13:57.347Z,102613.44
2022-10-19T05:16:25.853Z,102617.78
2022-10-19T05:18:58.613Z,102610.00
2022-10-19T05:21:28.973Z,102611.75
2022-10-19T05:23:57.691Z,102608.28
2022-10-19T05:26:29.125Z,102612.66
2022-10-19T05:29:04.506Z,102610.94
2022-10-19T05:31:34.810Z,102603.13
2022-10-19T05:34:04.038Z,102604.88
2022-10-19T05:36:39.082Z,102604.00
2022-10-19T05:39:18.501Z,102607.53
2022-10-19T05:41:47.649Z,102600.59
2022-10-19T05:44:24.039Z,102587.56
2022-10-19T05:46:52.342Z,102590.22
2022-10-19T05:49:22.110Z,102592.84
2022-10-19T05:51:50.610Z,102589.38
2022-10-19T05:54:18.747Z,102585.06
2022-10-19T05:56:46.590Z,102591.13
2022-10-19T05:59:22.258Z,102585.94
2022-10-19T06:01:49.611Z,102586.84
2022-10-19T06:06:49.122Z,102581.63
2022-10-19T06:09:18.184Z,102581.66
2022-10-19T06:11:45.333Z,102583.38
2022-10-19T06:14:16.524Z,102594.69
2022-10-19T06:16:45.922Z,102601.59
2022-10-19T06:19:13.713Z,102591.19
2022-10-19T06:21:43.388Z,102593.75
2022-10-19T06:24:13.213Z,102585.97
2022-10-19T06:26:40.416Z,102583.34
2022-10-19T06:29:07.635Z,102588.56
2022-10-19T06:31:36.708Z,102589.44
2022-10-19T06:34:04.916Z,102585.06
2022-10-19T06:36:33.752Z,102584.19
2022-10-19T06:39:02.105Z,102583.28
2022-10-19T06:41:31.728Z,102581.53
2022-10-19T06:44:13.764Z,102584.94
2022-10-19T06:46:40.968Z,102570.16
2022-10-19T06:49:11.626Z,102568.44
2022-10-19T06:51:40.616Z,102573.59
2022-10-19T06:54:08.071Z,102583.06
2022-10-19T06:56:35.363Z,102585.53
2022-10-19T06:59:02.607Z,102589.69
2022-10-19T07:01:29.880Z,102596.47
2022-10-19T07:03:57.134Z,102599.81
2022-10-19T07:06:26.537Z,102596.19
2022-10-19T07:08:54.269Z,102594.41
2022-10-19T07:11:24.942Z,102598.72
2022-10-19T07:13:53.625Z,102598.69
2022-10-19T07:16:21.916Z,102600.44
2022-10-19T07:18:52.998Z,102605.66
2022-10-19T07:21:23.335Z,102596.94
2022-10-19T07:23:50.650Z,102588.22
2022-10-19T07:26:27.559Z,102589.03
2022-10-19T07:28:57.507Z,102590.69
2022-10-19T07:31:27.541Z,102595.88
2022-10-19T07:33:58.953Z,102584.53
2022-10-19T07:36:29.562Z,102587.06
2022-10-19T07:38:57.558Z,102585.28
2022-10-19T07:41:26.221Z,102578.22
2022-10-19T07:43:54.933Z,102576.41
2022-10-19T07:46:33.337Z,102577.22
2022-10-19T07:49:01.641Z,102586.66
2022-10-19T07:54:01.013Z,102598.63
2022-10-19T07:56:29.337Z,102606.38
2022-10-19T07:58:59.632Z,102600.22
2022-10-19T08:01:36.878Z,102599.28
2022-10-19T08:06:51.558Z,102594.63
2022-10-19T08:09:47.325Z,102596.31
2022-10-19T08:12:07.037Z,102588.34
2022-10-19T08:14:35.275Z,102581.22
2022-10-19T08:17:02.823Z,102574.16
2022-10-19T08:19:30.074Z,102570.56
2022-10-19T08:21:57.266Z,102570.41
2022-10-19T08:24:24.394Z,102573.72
2022-10-19T08:26:52.307Z,102575.38
2022-10-19T08:29:21.720Z,102570.06
2022-10-19T08:31:49.657Z,102576.91
2022-10-19T08:34:17.711Z,102577.66
2022-10-19T08:36:45.018Z,102581.97
2022-10-19T08:39:15.627Z,102581.78
2022-10-19T08:41:57.749Z,102577.38
2022-10-19T08:45:12.349Z,102571.06
2022-10-19T08:48:03.244Z,102561.28
2022-10-19T08:50:39.461Z,102556.59
2022-10-19T08:53:26.348Z,102545.97
2022-10-19T08:56:51.395Z,102542.19
2022-10-19T09:00:07.234Z,102534.97
2022-10-19T09:03:54.477Z,102531.16
2022-10-19T09:06:38.958Z,102522.97
2022-10-19T09:09:06.707Z,102530.50
2022-10-19T09:11:47.068Z,102532.16
2022-10-19T09:15:02.706Z,102535.50
2022-10-19T09:17:32.427Z,102541.56
2022-10-19T09:20:25.519Z,102530.78
2022-10-19T09:23:24.286Z,102536.38
2022-10-19T09:25:52.784Z,102519.59
2022-10-19T09:28:48.154Z,102523.88
2022-10-19T09:31:40.728Z,102519.19
2022-10-19T09:34:25.586Z,102506.94
2022-10-19T09:36:59.696Z,102502.97
2022-10-19T09:39:30.775Z,102500.13
2022-10-19T09:42:18.850Z,102500.78
2022-10-19T09:44:46.863Z,102509.03
2022-10-19T09:47:38.158Z,102509.72
2022-10-19T09:50:29.498Z,102523.78
2022-10-19T09:52:59.504Z,102515.63
2022-10-19T09:55:42.888Z,102512.88
2022-10-19T09:58:18.997Z,102523.22
2022-10-19T10:00:55.079Z,102515.19
2022-10-19T10:03:43.505Z,102515.59
2022-10-19T10:06:17.451Z,102514.50
2022-10-19T10:08:59.060Z,102511.50
2022-10-19T10:11:38.268Z,102488.34
2022-10-19T10:14:32.614Z,102491.63
2022-10-19T10:17:38.462Z,102484.84
2022-10-19T10:20:24.292Z,102491.72
2022-10-19T10:23:06.027Z,102485.28
2022-10-19T10:25:36.865Z,102480.19
2022-10-19T10:28:27.170Z,102473.53
2022-10-19T10:31:04.591Z,102478.66
2022-10-19T10:33:45.014Z,102466.13
2022-10-19T10:36:13.394Z,102463.22
2022-10-19T10:39:08.639Z,102473.16
2022-10-19T10:41:44.690Z,102465.44
2022-10-19T10:44:30.748Z,102472.25
2022-10-19T10:47:02.652Z,102467.72
2022-10-19T10:49:37.105Z,102466.19
2022-10-19T10:52:16.131Z,102465.28
2022-10-19T10:55:08.211Z,102476.03
2022-10-19T10:57:47.048Z,102462.84
2022-10-19T11:00:23.218Z,102461.00
2022-10-19T11:03:18.603Z,102460.28
2022-10-19T11:05:56.362Z,102445.31
2022-10-19T11:08:51.216Z,102448.22
2022-10-19T11:11:39.722Z,102423.06
2022-10-19T11:14:46.195Z,102425.09
2022-10-19T11:17:30.136Z,102428.19
2022-10-19T11:19:58.600Z,102423.97
2022-10-19T11:22:40.500Z,102425.88
2022-10-19T11:25:49.330Z,102419.69
2022-10-19T11:28:34.405Z,102409.59
2022-10-19T11:31:30.250Z,102408.34
2022-10-19T11:34:59.222Z,102413.38
2022-10-19T11:38:45.887Z,102406.44
2022-10-19T11:41:44.948Z,102408.22
2022-10-19T11:45:15.774Z,102400.81
2022-10-19T11:48:06.793Z,102398.00
2022-10-19T11:50:46.701Z,102394.38
2022-10-19T11:53:53.999Z,102376.28
2022-10-19T11:57:02.194Z,102378.72
2022-10-19T12:00:08.637Z,102368.38
2022-10-19T12:03:23.674Z,102349.84
2022-10-19T12:06:25.920Z,102341.94
2022-10-19T12:09:28.201Z,102335.59
2022-10-19T12:12:41.187Z,102323.84
2022-10-19T12:15:33.473Z,102316.84
2022-10-19T12:18:46.602Z,102311.81
2022-10-19T12:21:43.114Z,102304.44
2022-10-19T12:24:23.843Z,102306.03
2022-10-19T12:26:54.884Z,102299.88
2022-10-19T12:29:30.608Z,102302.69
2022-10-19T12:32:01.004Z,102292.91
2022-10-19T12:35:08.794Z,102297.00
2022-10-19T12:37:54.764Z,102282.56
2022-10-19T12:40:45.339Z,102284.22
2022-10-19T12:43:24.474Z,102269.16
2022-10-19T12:46:29.353Z,102282.22
2022-10-19T12:49:30.693Z,102273.00
2022-10-19T12:52:01.036Z,102272.50
2022-10-19T12:54:34.183Z,102260.31
2022-10-19T12:57:28.793Z,102248.69
2022-10-19T13:00:26.133Z,102238.69
2022-10-19T13:03:15.762Z,102236.38
2022-10-19T13:05:56.812Z,102226.13
2022-10-19T13:08:42.171Z,102235.75
2022-10-19T13:11:16.746Z,102235.09
2022-10-19T13:14:25.297Z,102217.66
2022-10-19T13:17:03.765Z,102212.09
2022-10-19T13:19:31.028Z,102209.44
2022-10-19T13:22:01.547Z,102211.44
2022-10-19T13:24:37.325Z,102206.38
2022-10-19T13:27:04.462Z,102210.59
2022-10-19T13:29:37.424Z,102207.09
2022-10-19T13:32:45.478Z,102198.47
2022-10-19T13:35:31.868Z,102199.19
2022-10-19T13:38:18.439Z,102195.53
2022-10-19T13:40:51.226Z,102199.97
2022-10-19T13:43:25.922Z,102199.97
2022-10-19T13:46:47.700Z,102193.19
2022-10-19T13:49:48.704Z,102191.59
2022-10-19T13:53:06.951Z,102186.91
2022-10-19T13:56:46.098Z,102182.56
2022-10-19T14:00:25.568Z,102173.19
2022-10-19T14:03:28.755Z,102175.41
2022-10-19T14:06:46.225Z,102174.84
2022-10-19T14:09:37.330Z,102183.66
2022-10-19T14:12:30.942Z,102169.72
2022-10-19T14:14:58.414Z,102173.84
2022-10-19T14:17:34.115Z,102176.72
2022-10-19T14:20:02.260Z,102169.03
2022-10-19T14:22:36.237Z,102173.69
2022-10-19T14:25:29.441Z,102166.69
2022-10-19T14:28:06.801Z,102167.59
2022-10-19T14:30:44.580Z,102157.94
2022-10-19T14:33:17.858Z,102160.66
2022-10-19T14:35:50.578Z,102160.66
2022-10-19T14:38:38.292Z,102150.94
2022-10-19T14:41:18.896Z,102148.38
2022-10-19T14:43:46.249Z,102144.97
2022-10-19T14:46:16.830Z,102140.69
2022-10-19T14:48:51.042Z,102146.88
2022-10-19T14:51:43.431Z,102152.09
2022-10-19T14:54:36.090Z,102137.13
2022-10-19T14:57:36.460Z,102133.78
2022-10-19T15:00:19.274Z,102138.19
2022-10-19T15:03:04.736Z,102134.72
2022-10-19T15:05:42.009Z,102134.56
2022-10-19T15:08:24.575Z,102127.97
2022-10-19T15:10:52.562Z,102123.53
2022-10-19T15:13:27.061Z,102113.72
2022-10-19T15:15:55.796Z,102108.44
2022-10-19T15:18:47.565Z,102111.94
2022-10-19T15:21:20.851Z,102107.72
2022-10-19T15:23:52.433Z,102099.28
2022-10-19T15:26:30.047Z,102106.91
2022-10-19T15:29:19.684Z,102112.09
2022-10-19T15:31:46.905Z,102112.78
2022-10-19T15:34:29.534Z,102097.72
2022-10-19T15:37:02.078Z,102105.31
2022-10-19T15:39:40.919Z,102094.28
2022-10-19T15:42:45.561Z,102088.69
2022-10-19T15:45:38.125Z,102085.78
2022-10-19T15:48:33.983Z,102080.03
2022-10-19T15:51:01.100Z,102072.78
2022-10-19T15:53:28.260Z,102059.97
2022-10-19T15:55:55.558Z,102058.59
2022-10-19T15:58:24.230Z,102051.13
2022-10-19T16:00:51.473Z,102042.72
2022-10-19T16:03:18.645Z,102041.22
2022-10-19T16:05:47.148Z,102050.13
2022-10-19T16:08:14.353Z,102044.50
2022-10-19T16:10:41.533Z,102040.50
2022-10-19T16:13:08.757Z,102031.16
2022-10-19T16:15:35.960Z,102025.25
2022-10-19T16:18:03.130Z,102022.84
2022-10-19T16:20:30.523Z,102016.13
2022-10-19T16:22:58.642Z,102015.56
2022-10-19T16:25:27.716Z,102014.13
2022-10-19T16:27:54.930Z,102004.66
2022-10-19T16:30:22.133Z,102011.19
2022-10-19T16:32:49.806Z,102005.28
2022-10-19T16:35:17.172Z,102003.69
2022-10-19T16:37:44.449Z,102007.47
2022-10-19T16:40:12.019Z,102002.41
2022-10-19T16:42:39.317Z,101992.91
2022-10-19T16:45:07.439Z,101992.09
2022-10-19T16:47:34.640Z,101985.28
2022-10-19T16:50:05.111Z,101991.59
2022-10-19T16:52:33.305Z,101987.31
2022-10-19T16:55:01.363Z,101995.44
2022-10-19T16:57:28.629Z,101997.28
2022-10-19T16:59:55.891Z,101979.88
2022-10-19T17:02:23.190Z,101970.81
2022-10-19T17:04:50.666Z,101969.44
2022-10-19T17:07:19.129Z,101962.63
2022-10-19T17:09:49.759Z,101967.13
2022-10-19T17:12:19.671Z,101968.22
2022-10-19T17:14:46.817Z,101964.84
2022-10-19T17:17:14.060Z,101971.03
2022-10-19T17:19:41.298Z,101970.97
2022-10-19T17:22:08.439Z,101966.75
2022-10-19T17:24:37.361Z,101967.75
2022-10-19T17:27:04.739Z,101961.63
2022-10-19T17:29:32.205Z,101966.16
2022-10-19T17:31:59.792Z,101968.97
2022-10-19T17:34:27.453Z,101963.72
2022-10-19T17:36:55.037Z,101957.88
2022-10-19T17:39:28.965Z,101956.28
2022-10-19T17:42:02.009Z,101958.25
2022-10-19T17:44:31.267Z,101956.53
2022-10-19T17:47:00.760Z,101954.81
2022-10-19T17:49:29.687Z,101955.81
2022-10-19T17:51:57.153Z,101965.63
2022-10-19T17:54:24.485Z,101959.50
2022-10-19T17:56:51.670Z,101966.72
2022-10-19T17:59:29.929Z,101963.28
2022-10-19T18:02:04.434Z,101956.53
2022-10-19T18:04:32.459Z,101967.81
2022-10-19T18:06:59.857Z,101970.56
2022-10-19T18:09:27.067Z,101974.19
2022-10-19T18:11:54.324Z,101988.31
2022-10-19T18:14:22.809Z,101978.72
2022-10-19T18:16:52.010Z,101970.91
2022-10-19T18:19:19.238Z,101970.06
2022-10-19T18:21:49.100Z,101966.69
2022-10-19T18:24:20.215Z,101969.44
2022-10-19T18:26:50.885Z,101956.47
2022-10-19T18:29:25.699Z,101953.97
2022-10-19T18:31:54.830Z,101955.09
2022-10-19T18:34:26.225Z,101949.09
2022-10-19T18:36:54.320Z,101952.63
2022-10-19T18:39:22.541Z,101942.22
2022-10-19T18:41:54.597Z,101941.34
2022-10-19T18:44:26.961Z,101944.88
2022-10-19T18:46:57.056Z,101939.06
2022-10-19T18:49:24.708Z,101935.66
2022-10-19T18:51:55.120Z,101934.09
2022-10-19T18:54:27.820Z,101939.41
2022-10-19T18:56:55.621Z,101933.31
2022-10-19T18:59:23.164Z,101921.03
2022-10-19T19:01:50.577Z,101924.72
2022-10-19T19:04:17.952Z,101916.03
2022-10-19T19:06:45.167Z,101910.97
2022-10-19T19:09:13.309Z,101906.59
2022-10-19T19:11:41.519Z,101893.59
2022-10-19T19:14:21.097Z,101889.09
2022-10-19T19:16:48.548Z,101890.88
2022-10-19T19:19:18.794Z,101890.28
2022-10-19T19:21:47.415Z,101895.63
2022-10-19T19:24:22.039Z,101886.19
2022-10-19T19:26:53.864Z,101874.09
2022-10-19T19:29:22.585Z,101874.16
2022-10-19T19:31:50.554Z,101867.22
2022-10-19T19:34:18.502Z,101870.81
2022-10-19T19:36:49.095Z,101867.34
2022-10-19T19:39:20.469Z,101865.69
2022-10-19T19:41:49.770Z,101857.03
2022-10-19T19:44:20.644Z,101858.81
2022-10-19T19:46:48.080Z,101851.94
2022-10-19T19:49:15.509Z,101845.81
2022-10-19T19:51:43.067Z,101848.53
2022-10-19T19:54:11.417Z,101838.22
2022-10-19T19:56:40.036Z,101833.16
2022-10-19T19:59:07.361Z,101828.03
2022-10-19T20:01:36.599Z,101822.84
2022-10-19T20:04:04.523Z,101821.22
2022-10-19T20:06:35.079Z,101827.41
2022-10-19T20:09:02.436Z,101819.59
2022-10-19T20:11:30.026Z,101814.59
2022-10-19T20:13:57.689Z,101805.06
2022-10-19T20:16:32.001Z,101805.00
2022-10-19T20:19:14.475Z,101790.28
2022-10-19T20:21:42.269Z,101793.91
2022-10-19T20:24:10.243Z,101781.84
2022-10-19T20:26:37.844Z,101782.00
2022-10-19T20:29:05.774Z,101767.22
2022-10-19T20:31:38.677Z,101762.84
2022-10-19T20:34:13.955Z,101757.59
2022-10-19T20:36:41.869Z,101758.50
2022-10-19T20:39:10.471Z,101754.31
2022-10-19T20:41:37.627Z,101764.81
2022-10-19T20:44:05.153Z,101763.31
2022-10-19T20:46:32.510Z,101783.47
2022-10-19T20:49:02.076Z,101779.13
2022-10-19T20:51:35.041Z,101773.94
2022-10-19T20:54:07.108Z,101767.81
2022-10-19T20:56:38.381Z,101773.94
2022-10-19T20:59:15.148Z,101773.13
2022-10-19T21:01:44.946Z,101772.22
2022-10-19T21:04:14.579Z,101769.56
2022-10-19T21:06:51.455Z,101765.41
2022-10-19T21:09:23.240Z,101765.25
2022-10-19T21:11:52.291Z,101760.97
2022-10-19T21:14:28.439Z,101747.06
2022-10-19T21:16:58.965Z,101748.00
2022-10-19T21:19:29.621Z,101750.56
2022-10-19T21:22:02.210Z,101728.84
2022-10-19T21:24:34.494Z,101734.13
2022-10-19T21:27:06.576Z,101726.13
2022-10-19T21:29:34.317Z,101736.53
2022-10-19T21:32:01.586Z,101749.63
2022-10-19T21:34:31.318Z,101747.09
2022-10-19T21:36:59.358Z,101733.19
2022-10-19T21:39:26.672Z,101730.69
2022-10-19T21:41:53.976Z,101727.34
2022-10-19T21:44:23.045Z,101724.00
2022-10-19T21:46:50.955Z,101723.09
2022-10-19T21:49:18.284Z,101717.81
2022-10-19T21:51:53.712Z,101720.50
2022-10-19T21:54:25.118Z,101711.91
2022-10-19T21:56:53.414Z,101712.88
2022-10-19T21:59:20.734Z,101715.59
2022-10-19T22:01:48.117Z,101719.06
2022-10-19T22:04:18.151Z,101710.47
2022-10-19T22:06:46.494Z,101714.69
2022-10-19T22:09:20.807Z,101696.44
2022-10-19T22:11:48.981Z,101698.25
2022-10-19T22:14:17.403Z,101685.28
2022-10-19T22:16:44.864Z,101680.09
2022-10-19T22:19:12.802Z,101675.81
2022-10-19T22:21:40.308Z,101670.75
2022-10-19T22:24:13.620Z,101662.97
2022-10-19T22:26:50.752Z,101656.09
2022-10-19T22:29:18.509Z,101666.66
2022-10-19T22:31:45.807Z,101655.38
2022-10-19T22:34:17.882Z,101658.88
2022-10-19T22:36:45.668Z,101661.53
2022-10-19T22:39:14.270Z,101655.50
2022-10-19T22:43:15.004Z,101642.53
2022-10-19T22:46:00.793Z,101639.00
2022-10-19T22:48:28.088Z,101638.13
2022-10-19T22:50:56.242Z,101631.97
2022-10-19T22:53:24.706Z,101633.00
2022-10-19T22:55:51.940Z,101633.91
2022-10-19T22:58:20.101Z,101629.56
2022-10-19T23:01:02.657Z,101621.78
2022-10-19T23:03:30.102Z,101619.16
2022-10-19T23:05:57.443Z,101614.84
2022-10-19T23:08:24.779Z,101609.69
2022-10-19T23:10:52.295Z,101607.13
2022-10-19T23:13:19.532Z,101606.19
2022-10-19T23:15:46.840Z,101610.41
2022-10-19T23:18:14.402Z,101607.91
2022-10-19T23:20:41.850Z,101601.91
2022-10-19T23:23:09.695Z,101603.78
2022-10-19T23:25:36.895Z,101598.56
2022-10-19T23:28:04.354Z,101595.94
2022-10-19T23:30:31.751Z,101594.09
2022-10-19T23:32:58.885Z,101588.09
2022-10-19T23:35:26.071Z,101575.91
2022-10-19T23:37:53.213Z,101573.41
2022-10-19T23:40:20.388Z,101578.69
2022-10-19T23:42:47.695Z,101577.75
2022-10-19T23:45:15.286Z,101574.31
2022-10-19T23:47:42.467Z,101570.91
2022-10-19T23:50:09.826Z,101563.06
2022-10-19T23:52:37.035Z,101569.13
2022-10-19T23:55:04.978Z,101578.75
2022-10-19T23:57:32.202Z,101575.19
2022-10-19T23:59:59.352Z,101563.00
